Time;durP1;ratioP1;P1;durP2;ratioP2;P2;SDS_P1;SDS_P2;PMS_P1;PMS_P2;Temp;Humidity;BMP_temperature;BMP_pressure;BME280_temperature;BME280_humidity;BME280_pressure;Samples;Min_cycle;Max_cycle;Signal;HPM_P1;HPM_P2
2020/12/21 00:01:53;;;;;;;16.38;10.05;;;;;;;;;;5012495;28;20121;-74
2020/12/21 00:04:20;;;;;;;20.23;10.57;;;;;;;;;;5012332;28;20135;-74
2020/12/21 00:06:52;;;;;;;16.73;9.85;;;;;;;;;;5012474;28;20029;-74
2020/12/21 00:09:18;;;;;;;17.30;9.70;;;;;;;;;;5012453;28;20045;-74
2020/12/21 00:11:44;;;;;;;15.23;9.02;;;;;;;;;;5012291;28;20109;-75
2020/12/21 00:14:11;;;;;;;14.20;8.55;;;;;;;;;;5012496;28;20022;-74
2020/12/21 00:16:40;;;;;;;14.98;9.32;;;;;;;;;;5012426;28;20529;-74
2020/12/21 00:19:07;;;;;;;13.30;8.48;;;;;;;;;;5016180;28;20406;-74
2020/12/21 00:21:33;;;;;;;15.52;8.63;;;;;;;;;;5016024;28;20041;-74
2020/12/21 00:23:59;;;;;;;13.68;8.45;;;;;;;;;;5016392;28;20026;-74
2020/12/21 00:26:25;;;;;;;15.23;8.68;;;;;;;;;;5016084;28;20030;-74
2020/12/21 00:28:51;;;;;;;16.45;8.80;;;;;;;;;;5016144;28;20022;-75
2020/12/21 00:31:28;;;;;;;12.80;8.38;;;;;;;;;;5016010;28;20032;-75
2020/12/21 00:33:55;;;;;;;12.45;7.85;;;;;;;;;;5016131;28;20018;-74
2020/12/21 00:36:21;;;;;;;14.15;8.48;;;;;;;;;;5016034;28;20359;-75
2020/12/21 00:38:48;;;;;;;13.90;8.55;;;;;;;;;;5016117;28;20026;-75
2020/12/21 00:41:15;;;;;;;15.25;8.35;;;;;;;;;;5015596;28;20026;-75
2020/12/21 00:43:41;;;;;;;13.32;7.82;;;;;;;;;;5015804;28;20037;-75
2020/12/21 00:46:11;;;;;;;16.10;8.70;;;;;;;;;;5015893;28;20390;-75
2020/12/21 00:48:37;;;;;;;12.25;7.70;;;;;;;;;;5015701;28;20022;-74
2020/12/21 00:51:03;;;;;;;15.13;7.65;;;;;;;;;;5015849;28;20026;-73
2020/12/21 00:53:29;;;;;;;11.27;6.78;;;;;;;;;;5015654;28;20080;-73
2020/12/21 00:55:56;;;;;;;11.00;7.10;;;;;;;;;;5015572;28;20030;-73
2020/12/21 00:58:22;;;;;;;10.27;6.68;;;;;;;;;;5015556;28;20112;-73
2020/12/21 01:00:48;;;;;;;10.48;6.32;;;;;;;;;;5015387;28;20124;-72
2020/12/21 01:03:15;;;;;;;10.35;6.10;;;;;;;;;;5015351;28;20053;-73
2020/12/21 01:05:41;;;;;;;9.60;6.45;;;;;;;;;;5015359;28;20030;-73
2020/12/21 01:08:07;;;;;;;10.65;6.57;;;;;;;;;;5015247;28;20022;-73
2020/12/21 01:10:33;;;;;;;12.48;6.60;;;;;;;;;;5015373;28;20105;-73
2020/12/21 01:12:59;;;;;;;9.65;6.68;;;;;;;;;;5015233;28;20022;-73
2020/12/21 01:15:25;;;;;;;10.20;6.07;;;;;;;;;;5015160;28;20026;-73
2020/12/21 01:17:51;;;;;;;9.10;5.85;;;;;;;;;;5015081;28;20026;-73
2020/12/21 01:20:17;;;;;;;8.80;5.57;;;;;;;;;;5014969;28;20386;-72
2020/12/21 01:22:43;;;;;;;10.02;5.47;;;;;;;;;;5014870;28;20504;-73
2020/12/21 01:25:09;;;;;;;9.07;5.63;;;;;;;;;;5015048;28;20472;-73
2020/12/21 01:27:35;;;;;;;8.30;5.05;;;;;;;;;;5014809;28;20492;-73
2020/12/21 01:30:01;;;;;;;7.75;5.00;;;;;;;;;;5015168;28;20026;-73
2020/12/21 01:32:27;;;;;;;9.50;5.40;;;;;;;;;;5014871;28;20033;-73
2020/12/21 01:34:53;;;;;;;9.25;5.72;;;;;;;;;;5015033;28;20022;-73
2020/12/21 01:37:19;;;;;;;10.45;6.10;;;;;;;;;;5014793;28;20029;-73
2020/12/21 01:39:48;;;;;;;8.48;5.35;;;;;;;;;;5014697;28;20014;-73
2020/12/21 01:42:23;;;;;;;7.90;5.32;;;;;;;;;;5014612;28;20037;-73
2020/12/21 01:44:49;;;;;;;9.13;5.57;;;;;;;;;;5014640;28;20021;-73
2020/12/21 01:47:19;;;;;;;6.93;4.75;;;;;;;;;;5014577;28;20526;-73
2020/12/21 01:49:46;;;;;;;8.43;4.47;;;;;;;;;;5014507;28;20022;-73
2020/12/21 01:52:12;;;;;;;9.57;4.70;;;;;;;;;;5014203;28;20034;-73
2020/12/21 01:54:39;;;;;;;7.97;4.53;;;;;;;;;;5014293;28;20026;-73
2020/12/21 01:57:05;;;;;;;7.10;4.90;;;;;;;;;;5014357;28;20022;-73
2020/12/21 01:59:31;;;;;;;8.73;4.65;;;;;;;;;;4996652;28;20420;-73
2020/12/21 02:01:57;;;;;;;7.28;4.63;;;;;;;;;;5014281;28;20396;-73
2020/12/21 02:04:23;;;;;;;7.72;4.68;;;;;;;;;;5014355;28;20481;-73
2020/12/21 02:06:49;;;;;;;6.82;4.50;;;;;;;;;;5014322;28;20084;-73
2020/12/21 02:09:15;;;;;;;6.57;4.47;;;;;;;;;;5014178;28;20018;-73
2020/12/21 02:11:42;;;;;;;9.48;4.78;;;;;;;;;;5014147;28;20026;-73
2020/12/21 02:14:08;;;;;;;7.97;4.70;;;;;;;;;;5013991;28;20053;-73
2020/12/21 02:16:35;;;;;;;8.05;5.07;;;;;;;;;;5014043;28;20488;-73
2020/12/21 02:19:01;;;;;;;7.30;4.95;;;;;;;;;;5013885;28;20493;-73
2020/12/21 02:21:27;;;;;;;7.20;4.63;;;;;;;;;;5013847;28;20034;-72
2020/12/21 02:23:53;;;;;;;8.02;4.65;;;;;;;;;;5014063;28;20033;-73
2020/12/21 02:26:19;;;;;;;9.13;4.80;;;;;;;;;;5013866;28;20026;-73
2020/12/21 02:28:50;;;;;;;6.43;4.47;;;;;;;;;;5013734;28;20072;-73
2020/12/21 02:31:16;;;;;;;7.10;5.05;;;;;;;;;;5013634;28;20084;-72
2020/12/21 02:33:42;;;;;;;7.63;4.35;;;;;;;;;;5013658;28;20069;-73
2020/12/21 02:36:08;;;;;;;6.45;4.53;;;;;;;;;;5013684;28;20017;-73
2020/12/21 02:38:34;;;;;;;6.88;4.32;;;;;;;;;;5013558;28;20092;-72
2020/12/21 02:41:00;;;;;;;6.88;4.13;;;;;;;;;;4995274;28;20441;-72
2020/12/21 02:43:26;;;;;;;6.72;4.25;;;;;;;;;;5013402;28;20026;-72
2020/12/21 02:45:52;;;;;;;8.88;4.60;;;;;;;;;;5013682;28;20030;-73
2020/12/21 02:48:18;;;;;;;8.25;5.05;;;;;;;;;;5013344;28;20026;-73
2020/12/21 02:50:45;;;;;;;7.20;4.47;;;;;;;;;;5013362;28;20029;-73
2020/12/21 02:53:11;;;;;;;7.80;4.80;;;;;;;;;;5013398;28;20427;-73
2020/12/21 02:55:37;;;;;;;7.43;4.78;;;;;;;;;;5013240;28;20470;-73
2020/12/21 02:58:04;;;;;;;6.20;4.22;;;;;;;;;;5012968;28;20032;-72
2020/12/21 03:00:30;;;;;;;7.90;4.72;;;;;;;;;;5013282;28;20117;-73
2020/12/21 03:02:56;;;;;;;8.25;5.38;;;;;;;;;;5013363;28;20093;-73
2020/12/21 03:05:22;;;;;;;8.68;4.60;;;;;;;;;;5013290;28;20026;-72
2020/12/21 03:07:48;;;;;;;8.25;4.85;;;;;;;;;;5013088;28;20060;-73
2020/12/21 03:10:14;;;;;;;6.45;4.45;;;;;;;;;;5013120;28;20026;-73
2020/12/21 03:12:40;;;;;;;8.25;4.60;;;;;;;;;;5013053;28;20029;-73
2020/12/21 03:15:06;;;;;;;7.15;4.50;;;;;;;;;;5013026;28;20045;-73
2020/12/21 03:17:32;;;;;;;8.25;4.97;;;;;;;;;;5013031;28;20544;-72
2020/12/21 03:19:58;;;;;;;7.68;4.65;;;;;;;;;;5012895;28;20018;-73
2020/12/21 03:22:24;;;;;;;6.30;4.82;;;;;;;;;;5013075;28;20045;-73
2020/12/21 03:24:50;;;;;;;7.47;4.80;;;;;;;;;;5012915;28;20021;-72
2020/12/21 03:27:17;;;;;;;8.07;5.18;;;;;;;;;;5012743;28;20640;-72
2020/12/21 03:29:43;;;;;;;8.27;4.45;;;;;;;;;;5012982;28;20026;-72
2020/12/21 03:32:09;;;;;;;8.38;4.80;;;;;;;;;;5012785;28;20022;-72
2020/12/21 03:34:35;;;;;;;7.80;4.55;;;;;;;;;;5012781;28;20414;-72
2020/12/21 03:37:02;;;;;;;7.88;4.75;;;;;;;;;;5012807;28;20022;-72
2020/12/21 03:39:28;;;;;;;6.53;4.38;;;;;;;;;;5012914;28;20473;-72
2020/12/21 03:41:54;;;;;;;8.48;4.85;;;;;;;;;;5012625;28;20041;-72
2020/12/21 03:44:20;;;;;;;8.82;4.53;;;;;;;;;;5012766;28;20164;-72
2020/12/21 03:46:46;;;;;;;8.40;4.78;;;;;;;;;;5012860;28;20097;-73
2020/12/21 03:49:12;;;;;;;12.50;5.15;;;;;;;;;;5012706;28;20053;-73
2020/12/21 03:51:38;;;;;;;8.25;4.72;;;;;;;;;;5012630;28;20025;-74
2020/12/21 03:54:04;;;;;;;7.88;5.15;;;;;;;;;;5016783;28;20025;-73
2020/12/21 03:56:30;;;;;;;9.43;4.70;;;;;;;;;;5016673;28;20029;-73
2020/12/21 03:58:56;;;;;;;9.40;4.32;;;;;;;;;;5016497;28;20050;-73
2020/12/21 04:01:22;;;;;;;7.75;5.00;;;;;;;;;;5016672;28;20088;-73
2020/12/21 04:03:48;;;;;;;8.10;4.45;;;;;;;;;;5016468;28;20026;-73
2020/12/21 04:06:14;;;;;;;8.27;4.20;;;;;;;;;;5016462;28;20064;-73
2020/12/21 04:08:40;;;;;;;7.03;4.55;;;;;;;;;;5016411;28;20079;-73
2020/12/21 04:11:07;;;;;;;7.85;4.65;;;;;;;;;;4998990;28;20432;-73
2020/12/21 04:13:33;;;;;;;8.07;4.45;;;;;;;;;;5016292;28;20665;-73
2020/12/21 04:15:59;;;;;;;7.18;4.80;;;;;;;;;;5015622;28;20462;-73
2020/12/21 04:18:25;;;;;;;8.30;5.03;;;;;;;;;;5016342;28;20033;-73
2020/12/21 04:20:51;;;;;;;14.43;7.82;;;;;;;;;;5014951;28;20033;-73
2020/12/21 04:23:17;;;;;;;16.40;9.60;;;;;;;;;;5010731;28;20026;-72
2020/12/21 04:25:43;;;;;;;14.25;8.52;;;;;;;;;;5016005;28;20021;-72
2020/12/21 04:28:09;;;;;;;14.23;8.68;;;;;;;;;;5015566;28;20030;-72
2020/12/21 04:30:35;;;;;;;11.48;6.57;;;;;;;;;;5015681;28;20105;-72
2020/12/21 04:33:01;;;;;;;9.27;5.50;;;;;;;;;;5015680;28;20057;-72
2020/12/21 04:35:27;;;;;;;7.07;4.95;;;;;;;;;;5015270;28;20077;-72
2020/12/21 04:37:53;;;;;;;9.15;5.38;;;;;;;;;;5015820;28;20390;-72
2020/12/21 04:40:20;;;;;;;8.73;5.45;;;;;;;;;;5015604;28;20466;-72
2020/12/21 04:42:49;;;;;;;7.55;4.78;;;;;;;;;;5014940;28;20465;-72
2020/12/21 04:45:16;;;;;;;8.52;5.30;;;;;;;;;;5015568;28;20540;-72
2020/12/21 04:47:43;;;;;;;8.13;5.47;;;;;;;;;;5015557;28;20056;-72
2020/12/21 04:50:18;;;;;;;9.57;5.13;;;;;;;;;;5015312;28;20068;-72
2020/12/21 04:52:51;;;;;;;9.27;5.68;;;;;;;;;;5015041;28;20026;-72
2020/12/21 04:55:19;;;;;;;10.82;6.20;;;;;;;;;;5015542;28;20034;-72
2020/12/21 04:57:54;;;;;;;10.60;6.60;;;;;;;;;;5015258;28;20041;-72
2020/12/21 05:00:21;;;;;;;11.30;6.55;;;;;;;;;;5015423;28;20040;-71
2020/12/21 05:02:47;;;;;;;10.27;6.25;;;;;;;;;;5014693;28;20496;-71
2020/12/21 05:05:13;;;;;;;8.63;5.28;;;;;;;;;;5015168;28;20028;-71
2020/12/21 05:07:39;;;;;;;11.02;5.85;;;;;;;;;;5015258;28;20022;-71
2020/12/21 05:10:08;;;;;;;9.15;5.53;;;;;;;;;;5015297;28;20017;-71
2020/12/21 05:12:35;;;;;;;9.38;5.65;;;;;;;;;;5015328;28;20026;-71
2020/12/21 05:15:12;;;;;;;9.25;5.97;;;;;;;;;;5015046;28;20030;-71
2020/12/21 05:17:38;;;;;;;10.35;5.65;;;;;;;;;;5015202;28;20029;-72
2020/12/21 05:20:04;;;;;;;14.07;6.15;;;;;;;;;;5014979;28;20025;-72
2020/12/21 05:22:31;;;;;;;9.85;6.05;;;;;;;;;;5014884;28;20030;-72
2020/12/21 05:25:09;;;;;;;10.18;5.70;;;;;;;;;;5014806;28;20033;-72
2020/12/21 05:27:35;;;;;;;10.13;6.60;;;;;;;;;;5014823;28;20033;-72
2020/12/21 05:30:03;;;;;;;18.08;9.32;;;;;;;;;;5014946;28;20474;-72
2020/12/21 05:32:29;;;;;;;16.13;7.88;;;;;;;;;;4997274;28;20386;-72
2020/12/21 05:35:05;;;;;;;16.80;9.10;;;;;;;;;;5015012;28;20033;-73
2020/12/21 05:37:31;;;;;;;15.10;8.90;;;;;;;;;;5014643;28;20030;-72
2020/12/21 05:39:58;;;;;;;15.73;9.05;;;;;;;;;;5014889;28;20478;-72
2020/12/21 05:42:24;;;;;;;22.02;9.70;;;;;;;;;;5015158;28;20030;-73
2020/12/21 05:44:52;;;;;;;18.45;10.48;;;;;;;;;;5014585;28;20022;-72
2020/12/21 05:47:18;;;;;;;15.35;8.18;;;;;;;;;;4997278;28;20036;-73
2020/12/21 05:49:55;;;;;;;17.60;9.00;;;;;;;;;;5014758;28;20022;-73
2020/12/21 05:52:41;;;;;;;17.27;9.23;;;;;;;;;;5014811;28;20568;-72
2020/12/21 05:55:11;;;;;;;20.38;10.40;;;;;;;;;;4997075;28;20026;-73
2020/12/21 05:57:38;;;;;;;15.98;8.85;;;;;;;;;;5014654;28;20053;-73
2020/12/21 06:00:05;;;;;;;17.35;8.68;;;;;;;;;;5014463;28;20042;-73
2020/12/21 06:02:32;;;;;;;13.02;7.63;;;;;;;;;;5014446;28;20037;-73
2020/12/21 06:05:00;;;;;;;12.27;7.32;;;;;;;;;;5014509;28;20446;-72
2020/12/21 06:07:28;;;;;;;11.80;7.35;;;;;;;;;;5014491;28;20025;-73
2020/12/21 06:09:56;;;;;;;14.32;8.65;;;;;;;;;;4996933;28;20102;-73
2020/12/21 06:12:23;;;;;;;13.60;6.60;;;;;;;;;;5014678;28;20018;-73
2020/12/21 06:14:50;;;;;;;17.83;7.70;;;;;;;;;;5013478;28;20026;-73
2020/12/21 06:17:17;;;;;;;16.00;8.95;;;;;;;;;;5014300;28;20030;-73
2020/12/21 06:19:43;;;;;;;14.45;8.93;;;;;;;;;;5014233;28;20033;-73
2020/12/21 06:22:09;;;;;;;16.98;8.60;;;;;;;;;;4996496;28;20034;-73
2020/12/21 06:24:38;;;;;;;14.00;7.70;;;;;;;;;;5014171;28;20022;-73
2020/12/21 06:27:15;;;;;;;11.80;7.60;;;;;;;;;;5014187;28;20180;-74
2020/12/21 06:29:41;;;;;;;16.15;8.75;;;;;;;;;;5014077;28;20022;-74
2020/12/21 06:32:08;;;;;;;15.50;8.45;;;;;;;;;;5014137;28;20068;-75
2020/12/21 06:34:35;;;;;;;11.93;7.85;;;;;;;;;;5013962;28;20026;-74
2020/12/21 06:37:19;;;;;;;14.75;7.72;;;;;;;;;;5013914;28;20029;-74
2020/12/21 06:39:45;;;;;;;;;;;;;;;;;;4996641;28;20053;-73
2020/12/21 06:42:15;;;;;;;14.32;8.63;;;;;;;;;;5013822;28;19968;-74
2020/12/21 06:44:43;;;;;;;16.92;9.20;;;;;;;;;;5013736;28;20030;-75
2020/12/21 06:47:10;;;;;;;17.73;9.88;;;;;;;;;;5013794;28;20032;-73
2020/12/21 06:49:37;;;;;;;14.00;8.80;;;;;;;;;;5013832;28;20029;-75
2020/12/21 06:52:03;;;;;;;13.93;8.60;;;;;;;;;;5013721;28;20025;-74
2020/12/21 06:54:29;;;;;;;14.00;8.38;;;;;;;;;;5013576;28;20030;-74
2020/12/21 06:56:56;;;;;;;10.95;7.40;;;;;;;;;;5013815;28;20444;-73
2020/12/21 06:59:22;;;;;;;12.13;7.72;;;;;;;;;;5013698;28;20125;-72
2020/12/21 07:01:50;;;;;;;11.50;7.03;;;;;;;;;;5013460;28;20121;-75
2020/12/21 07:04:17;;;;;;;13.93;7.65;;;;;;;;;;5013459;28;20030;-72
2020/12/21 07:06:44;;;;;;;14.32;8.30;;;;;;;;;;5013398;28;20088;-75
2020/12/21 07:09:12;;;;;;;13.18;7.80;;;;;;;;;;4995810;28;20436;-75
2020/12/21 07:11:39;;;;;;;12.95;8.45;;;;;;;;;;5013421;28;20025;-76
2020/12/21 07:14:05;;;;;;;12.73;7.78;;;;;;;;;;5013419;28;20018;-75
2020/12/21 07:16:32;;;;;;;19.42;10.93;;;;;;;;;;5013322;28;20026;-72
2020/12/21 07:18:58;;;;;;;41.75;19.27;;;;;;;;;;5013210;28;20014;-75
2020/12/21 07:21:24;;;;;;;50.42;23.50;;;;;;;;;;5013222;28;20032;-75
2020/12/21 07:23:50;;;;;;;55.17;27.17;;;;;;;;;;5013179;28;20053;-75
2020/12/21 07:26:17;;;;;;;56.65;29.00;;;;;;;;;;5012909;28;20033;-75
2020/12/21 07:28:46;;;;;;;58.53;29.35;;;;;;;;;;5013154;28;20026;-75
2020/12/21 07:31:13;;;;;;;44.58;23.58;;;;;;;;;;5013101;28;20026;-76
2020/12/21 07:33:50;;;;;;;43.40;24.85;;;;;;;;;;5013026;28;20473;-76
2020/12/21 07:36:17;;;;;;;48.13;25.60;;;;;;;;;;5012919;28;20124;-72
2020/12/21 07:38:44;;;;;;;46.28;24.13;;;;;;;;;;5013054;28;20485;-74
2020/12/21 07:41:10;;;;;;;42.88;22.98;;;;;;;;;;5013079;28;20040;-74
2020/12/21 07:43:40;;;;;;;40.72;22.50;;;;;;;;;;5012860;28;20030;-74
2020/12/21 07:46:09;;;;;;;40.70;21.95;;;;;;;;;;5012929;28;20058;-77
2020/12/21 07:48:35;;;;;;;35.90;20.15;;;;;;;;;;5012994;28;20378;-77
2020/12/21 07:51:03;;;;;;;37.17;19.90;;;;;;;;;;5012976;28;20373;-78
2020/12/21 07:53:33;;;;;;;36.30;19.13;;;;;;;;;;5012913;28;20105;-74
2020/12/21 07:55:59;;;;;;;33.95;18.23;;;;;;;;;;4995285;28;20168;-74
2020/12/21 07:58:25;;;;;;;40.40;20.92;;;;;;;;;;5012811;28;20042;-75
2020/12/21 08:00:55;;;;;;;56.75;23.17;;;;;;;;;;5012889;28;20022;-72
2020/12/21 08:03:23;;;;;;;66.80;24.25;;;;;;;;;;5012992;28;20084;-75
2020/12/21 08:05:49;;;;;;;60.65;22.30;;;;;;;;;;4995155;28;20401;-72
2020/12/21 08:08:15;;;;;;;44.50;19.85;;;;;;;;;;5012734;28;20024;-72
2020/12/21 08:10:41;;;;;;;39.72;17.92;;;;;;;;;;5012678;28;20363;-75
2020/12/21 08:13:25;;;;;;;38.25;20.13;;;;;;;;;;5012860;28;20026;-76
2020/12/21 08:15:51;;;;;;;38.25;18.52;;;;;;;;;;5013085;28;20060;-72
2020/12/21 08:18:17;;;;;;;36.85;17.65;;;;;;;;;;5012598;28;20057;-75
2020/12/21 08:20:50;;;;;;;38.13;19.67;;;;;;;;;;5012608;28;20168;-72
2020/12/21 08:23:23;;;;;;;32.78;17.45;;;;;;;;;;5012620;28;20038;-71
2020/12/21 08:25:49;;;;;;;31.13;16.83;;;;;;;;;;5012585;28;20018;-75
2020/12/21 08:28:24;;;;;;;31.85;17.10;;;;;;;;;;5012610;28;20018;-74
2020/12/21 08:30:50;;;;;;;34.72;17.80;;;;;;;;;;5012545;28;20398;-72
2020/12/21 08:33:16;;;;;;;31.92;18.17;;;;;;;;;;5012510;28;20026;-72
2020/12/21 08:35:42;;;;;;;31.10;17.13;;;;;;;;;;5012453;28;20053;-72
2020/12/21 08:38:14;;;;;;;28.23;16.70;;;;;;;;;;5013319;28;20026;-75
2020/12/21 08:40:41;;;;;;;28.38;16.58;;;;;;;;;;5016263;28;20030;-75
2020/12/21 08:43:07;;;;;;;27.13;16.15;;;;;;;;;;5016102;28;20038;-75
2020/12/21 08:45:36;;;;;;;27.85;16.20;;;;;;;;;;4998411;28;20267;-76
2020/12/21 08:48:02;;;;;;;36.97;21.92;;;;;;;;;;5015940;28;20422;-72
2020/12/21 08:50:28;;;;;;;39.65;24.30;;;;;;;;;;5015927;28;20030;-72
2020/12/21 08:52:54;;;;;;;42.47;22.98;;;;;;;;;;5016105;28;20022;-74
2020/12/21 08:55:20;;;;;;;37.08;22.95;;;;;;;;;;5015940;28;20076;-72
2020/12/21 08:57:46;;;;;;;36.35;22.30;;;;;;;;;;5015776;28;20072;-72
2020/12/21 09:00:12;;;;;;;36.90;21.08;;;;;;;;;;5015599;28;20054;-73
2020/12/21 09:02:38;;;;;;;33.10;19.92;;;;;;;;;;5015651;28;20034;-74
2020/12/21 09:05:05;;;;;;;32.38;19.33;;;;;;;;;;5015683;28;20057;-74
2020/12/21 09:07:31;;;;;;;30.77;18.48;;;;;;;;;;5015597;28;20537;-74
2020/12/21 09:09:57;;;;;;;25.35;14.63;;;;;;;;;;5015510;28;20470;-74
2020/12/21 09:12:25;;;;;;;24.80;15.38;;;;;;;;;;5015734;28;20037;-75
2020/12/21 09:14:51;;;;;;;25.02;14.02;;;;;;;;;;5015685;28;20026;-72
2020/12/21 09:17:17;;;;;;;24.65;14.90;;;;;;;;;;5015346;28;20101;-74
2020/12/21 09:19:43;;;;;;;26.17;15.85;;;;;;;;;;4997770;28;20026;-74
2020/12/21 09:22:09;;;;;;;22.40;14.55;;;;;;;;;;5015276;28;20047;-74
2020/12/21 09:24:35;;;;;;;25.60;15.63;;;;;;;;;;5015063;28;20498;-74
2020/12/21 09:27:01;;;;;;;26.63;15.10;;;;;;;;;;5014918;28;20481;-73
2020/12/21 09:29:27;;;;;;;24.33;14.13;;;;;;;;;;5014806;28;20032;-72
2020/12/21 09:31:53;;;;;;;23.02;14.43;;;;;;;;;;5015090;28;20026;-73
2020/12/21 09:34:19;;;;;;;94.70;41.53;;;;;;;;;;5014708;28;20046;-74
2020/12/21 09:36:45;;;;;;;35.42;18.30;;;;;;;;;;5014823;28;20026;-72
2020/12/21 09:39:11;;;;;;;27.35;15.73;;;;;;;;;;5014521;28;20048;-74
2020/12/21 09:41:38;;;;;;;26.75;15.02;;;;;;;;;;5014690;28;20034;-72
2020/12/21 09:44:04;;;;;;;23.38;13.63;;;;;;;;;;4996863;28;20485;-73
2020/12/21 09:46:30;;;;;;;24.13;14.50;;;;;;;;;;5014449;28;20056;-74
2020/12/21 09:48:58;;;;;;;34.33;20.63;;;;;;;;;;5014255;28;20032;-73
2020/12/21 09:51:25;;;;;;;19.33;10.50;;;;;;;;;;4996809;28;20049;-73
2020/12/21 09:53:51;;;;;;;25.80;14.23;;;;;;;;;;5014392;28;20025;-74
2020/12/21 09:56:17;;;;;;;22.17;11.13;;;;;;;;;;5014312;28;20022;-73
2020/12/21 09:58:45;;;;;;;14.63;8.13;;;;;;;;;;5014116;28;20048;-75
2020/12/21 10:01:11;;;;;;;16.30;8.38;;;;;;;;;;5014009;28;20029;-72
2020/12/21 10:03:40;;;;;;;15.07;6.88;;;;;;;;;;5014073;28;20034;-74
2020/12/21 10:06:10;;;;;;;10.95;6.60;;;;;;;;;;5013918;28;20533;-74
2020/12/21 10:08:37;;;;;;;10.30;5.40;;;;;;;;;;5013953;28;20025;-74
2020/12/21 10:11:04;;;;;;;8.43;5.18;;;;;;;;;;5013968;28;20076;-74
2020/12/21 10:13:30;;;;;;;11.98;5.55;;;;;;;;;;5013886;28;20022;-72
2020/12/21 10:15:56;;;;;;;11.40;5.03;;;;;;;;;;5013679;28;20087;-73
2020/12/21 10:18:22;;;;;;;14.40;5.40;;;;;;;;;;5013956;28;20018;-74
2020/12/21 10:20:49;;;;;;;10.73;5.50;;;;;;;;;;5013683;28;20022;-73
2020/12/21 10:23:15;;;;;;;10.45;5.93;;;;;;;;;;5014008;28;20026;-72
2020/12/21 10:25:42;;;;;;;12.60;6.43;;;;;;;;;;5013934;28;20022;-74
2020/12/21 10:28:08;;;;;;;15.10;7.78;;;;;;;;;;5013518;28;20109;-73
2020/12/21 10:30:34;;;;;;;26.15;12.88;;;;;;;;;;5013646;28;20033;-73
2020/12/21 10:33:04;;;;;;;17.92;7.95;;;;;;;;;;5013530;28;20026;-74
2020/12/21 10:35:31;;;;;;;12.57;5.63;;;;;;;;;;5013502;28;20025;-74
2020/12/21 10:37:57;;;;;;;11.93;5.95;;;;;;;;;;5013469;28;20028;-73
2020/12/21 10:40:23;;;;;;;11.80;5.55;;;;;;;;;;5013651;28;20028;-73
2020/12/21 10:42:49;;;;;;;11.73;5.82;;;;;;;;;;5013334;28;20041;-74
2020/12/21 10:45:15;;;;;;;10.77;6.07;;;;;;;;;;5013326;28;20041;-73
2020/12/21 10:47:41;;;;;;;12.25;6.13;;;;;;;;;;5013360;28;20026;-73
2020/12/21 10:50:07;;;;;;;14.07;6.35;;;;;;;;;;5013243;28;20033;-73
2020/12/21 10:52:34;;;;;;;9.55;4.88;;;;;;;;;;5013249;28;20030;-75
2020/12/21 10:55:00;;;;;;;10.60;6.50;;;;;;;;;;5013193;28;20018;-75
2020/12/21 10:57:26;;;;;;;8.48;5.38;;;;;;;;;;4995927;28;20022;-76
2020/12/21 10:59:52;;;;;;;10.20;4.95;;;;;;;;;;5013541;28;20516;-73
2020/12/21 11:02:18;;;;;;;9.95;5.03;;;;;;;;;;5012990;28;20038;-74
2020/12/21 11:04:45;;;;;;;10.45;4.60;;;;;;;;;;5013273;28;20507;-73
2020/12/21 11:07:11;;;;;;;10.98;5.60;;;;;;;;;;5013241;28;20042;-73
2020/12/21 11:09:37;;;;;;;9.70;4.50;;;;;;;;;;5012993;28;20033;-73
2020/12/21 11:12:03;;;;;;;8.00;4.97;;;;;;;;;;5012841;28;20034;-73
2020/12/21 11:14:29;;;;;;;10.43;4.88;;;;;;;;;;5012746;28;20026;-73
2020/12/21 11:16:57;;;;;;;7.20;4.75;;;;;;;;;;4995408;28;20026;-73
2020/12/21 11:19:23;;;;;;;8.27;4.68;;;;;;;;;;5012956;28;20485;-73
2020/12/21 11:21:49;;;;;;;7.38;3.72;;;;;;;;;;5012598;28;20426;-73
2020/12/21 11:24:16;;;;;;;6.68;3.97;;;;;;;;;;5012773;28;20358;-73
2020/12/21 11:26:42;;;;;;;7.70;3.55;;;;;;;;;;5012785;28;20049;-73
2020/12/21 11:29:08;;;;;;;8.80;3.83;;;;;;;;;;5012681;28;20022;-73
2020/12/21 11:31:36;;;;;;;6.70;3.42;;;;;;;;;;5012625;28;20060;-74
2020/12/21 11:34:02;;;;;;;5.43;3.28;;;;;;;;;;5012549;28;20022;-73
2020/12/21 11:36:28;;;;;;;8.07;3.53;;;;;;;;;;5012593;28;20034;-73
2020/12/21 11:38:54;;;;;;;7.82;3.88;;;;;;;;;;5012779;28;20037;-73
2020/12/21 11:41:20;;;;;;;9.57;4.70;;;;;;;;;;5012419;28;20535;-73
2020/12/21 11:43:46;;;;;;;10.13;4.88;;;;;;;;;;5012444;28;20037;-73
2020/12/21 11:46:13;;;;;;;6.88;4.22;;;;;;;;;;5012445;28;20022;-73
2020/12/21 11:48:39;;;;;;;7.60;4.40;;;;;;;;;;5012367;28;20060;-72
2020/12/21 11:51:05;;;;;;;8.48;4.15;;;;;;;;;;5012449;28;20073;-73
2020/12/21 11:53:31;;;;;;;9.93;5.25;;;;;;;;;;5012407;28;20092;-73
2020/12/21 11:55:57;;;;;;;7.75;4.53;;;;;;;;;;5012412;28;20018;-73
2020/12/21 11:58:23;;;;;;;6.43;4.05;;;;;;;;;;4994674;28;20045;-73
2020/12/21 12:00:49;;;;;;;6.75;4.43;;;;;;;;;;5012343;28;20026;-73
2020/12/21 12:03:15;;;;;;;7.38;4.70;;;;;;;;;;4994727;28;20037;-73
2020/12/21 12:05:43;;;;;;;7.43;4.80;;;;;;;;;;5012392;28;20077;-73
2020/12/21 12:08:09;;;;;;;6.35;4.00;;;;;;;;;;5012225;28;20026;-74
2020/12/21 12:10:35;;;;;;;6.85;3.97;;;;;;;;;;4994418;28;20389;-73
2020/12/21 12:13:01;;;;;;;7.65;4.55;;;;;;;;;;5012766;28;20465;-73
2020/12/21 12:15:27;;;;;;;6.55;4.20;;;;;;;;;;5015943;28;20030;-72
2020/12/21 12:17:53;;;;;;;7.15;3.95;;;;;;;;;;5016006;28;20136;-73
2020/12/21 12:20:19;;;;;;;7.85;3.95;;;;;;;;;;5015846;28;20136;-73
2020/12/21 12:22:45;;;;;;;6.55;3.95;;;;;;;;;;5015828;28;20030;-73
2020/12/21 12:25:11;;;;;;;7.38;4.70;;;;;;;;;;5007220;28;20030;-72
2020/12/21 12:27:37;;;;;;;6.10;4.10;;;;;;;;;;4993679;28;20054;-73
2020/12/21 12:30:03;;;;;;;8.32;4.05;;;;;;;;;;4993772;28;20019;-72
2020/12/21 12:32:29;;;;;;;7.05;3.88;;;;;;;;;;4993582;28;20479;-72
2020/12/21 12:34:55;;;;;;;6.28;4.07;;;;;;;;;;4993737;28;20027;-73
2020/12/21 12:37:21;;;;;;;13.15;4.78;;;;;;;;;;4982942;28;20026;-73
2020/12/21 12:39:47;;;;;;;7.88;4.70;;;;;;;;;;4995736;28;20370;-73
2020/12/21 12:42:13;;;;;;;9.10;4.63;;;;;;;;;;4995401;28;20590;-72
2020/12/21 12:44:39;;;;;;;7.85;3.45;;;;;;;;;;5012882;28;20100;-72
2020/12/21 12:47:05;;;;;;;8.75;3.80;;;;;;;;;;5013060;28;20033;-73
2020/12/21 12:49:31;;;;;;;6.07;3.00;;;;;;;;;;5012419;28;20080;-73
2020/12/21 12:51:57;;;;;;;6.30;3.15;;;;;;;;;;5012891;28;20029;-73
2020/12/21 12:54:23;;;;;;;5.03;2.72;;;;;;;;;;4995393;28;20064;-73
2020/12/21 12:56:49;;;;;;;5.43;2.67;;;;;;;;;;5012766;28;20026;-73
2020/12/21 12:59:15;;;;;;;10.88;4.63;;;;;;;;;;5012751;28;20069;-73
2020/12/21 13:01:42;;;;;;;14.18;5.85;;;;;;;;;;4995029;28;20405;-73
2020/12/21 13:04:08;;;;;;;14.75;6.35;;;;;;;;;;5012826;28;20033;-73
2020/12/21 13:06:34;;;;;;;15.65;6.72;;;;;;;;;;5012718;28;20041;-73
2020/12/21 13:09:00;;;;;;;11.15;5.40;;;;;;;;;;4995052;28;20029;-73
2020/12/21 13:11:26;;;;;;;5.00;3.03;;;;;;;;;;5012555;28;20026;-73
2020/12/21 13:13:52;;;;;;;5.18;2.90;;;;;;;;;;5011216;28;20030;-74
2020/12/21 13:16:19;;;;;;;8.55;3.33;;;;;;;;;;5014770;28;20034;-73
2020/12/21 13:18:45;;;;;;;3.45;2.60;;;;;;;;;;5014801;28;20686;-73
2020/12/21 13:21:18;;;;;;;8.25;3.65;;;;;;;;;;5014834;28;20069;-74
2020/12/21 13:23:44;;;;;;;7.72;4.25;;;;;;;;;;5014212;28;20029;-73
2020/12/21 13:26:13;;;;;;;6.10;3.78;;;;;;;;;;5014679;28;20369;-73
2020/12/21 13:28:39;;;;;;;6.88;4.10;;;;;;;;;;5014476;28;20034;-73
2020/12/21 13:31:05;;;;;;;6.15;3.40;;;;;;;;;;5014745;28;20481;-73
2020/12/21 13:33:31;;;;;;;5.72;3.17;;;;;;;;;;5014755;28;20033;-73
2020/12/21 13:35:57;;;;;;;5.25;2.78;;;;;;;;;;5014591;28;20029;-73
2020/12/21 13:38:23;;;;;;;4.78;3.03;;;;;;;;;;4996922;28;20034;-73
2020/12/21 13:40:49;;;;;;;5.05;2.85;;;;;;;;;;4997018;28;20025;-73
2020/12/21 13:43:15;;;;;;;3.42;2.63;;;;;;;;;;5014316;28;20061;-73
2020/12/21 13:45:42;;;;;;;5.68;2.72;;;;;;;;;;5014313;28;20488;-73
2020/12/21 13:48:08;;;;;;;3.70;2.97;;;;;;;;;;5014404;28;20030;-73
2020/12/21 13:50:34;;;;;;;5.80;3.97;;;;;;;;;;5014028;28;20106;-73
2020/12/21 13:53:00;;;;;;;6.78;3.20;;;;;;;;;;5013912;28;20058;-74
2020/12/21 13:55:26;;;;;;;7.53;3.83;;;;;;;;;;5013966;28;20109;-73
2020/12/21 13:57:52;;;;;;;5.32;3.28;;;;;;;;;;5014107;28;20067;-73
2020/12/21 14:00:18;;;;;;;19.80;9.55;;;;;;;;;;5013855;28;20109;-73
2020/12/21 14:02:44;;;;;;;14.48;7.20;;;;;;;;;;5013809;28;20030;-73
2020/12/21 14:05:10;;;;;;;10.13;4.90;;;;;;;;;;5013727;28;20029;-73
2020/12/21 14:07:36;;;;;;;11.00;5.50;;;;;;;;;;5014016;28;20636;-73
2020/12/21 14:10:02;;;;;;;6.82;3.92;;;;;;;;;;4996341;28;20096;-73
2020/12/21 14:12:28;;;;;;;5.95;3.92;;;;;;;;;;5013808;28;20109;-73
2020/12/21 14:14:54;;;;;;;7.25;3.97;;;;;;;;;;5014382;28;20022;-73
2020/12/21 14:17:20;;;;;;;8.38;4.38;;;;;;;;;;5013994;28;20034;-73
2020/12/21 14:19:46;;;;;;;8.23;3.95;;;;;;;;;;5013730;28;20014;-73
2020/12/21 14:22:12;;;;;;;6.18;3.40;;;;;;;;;;5013701;28;20041;-74
2020/12/21 14:24:38;;;;;;;4.82;2.90;;;;;;;;;;5013699;28;20053;-73
2020/12/21 14:27:04;;;;;;;3.42;2.88;;;;;;;;;;5013694;28;20025;-73
2020/12/21 14:29:31;;;;;;;7.47;4.20;;;;;;;;;;4996112;28;20113;-75
2020/12/21 14:31:58;;;;;;;5.95;3.35;;;;;;;;;;5013563;28;20018;-73